sensor_id;sensor_type;location;lat;lon;timestamp;pressure;altitude;pressure_sealevel;temperature;humidity
19676;BME280;39539;52.202;9.876;2022-07-25T00:01:14;100529.69;;;20.12;73.21
19676;BME280;39539;52.202;9.876;2022-07-25T00:03:39;100525.91;;;20.18;73.67
19676;BME280;39539;52.202;9.876;2022-07-25T00:06:05;100526.41;;;20.26;71.59
19676;BME280;39539;52.202;9.876;2022-07-25T00:08:30;100523.16;;;20.29;69.92
19676;BME280;39539;52.202;9.876;2022-07-25T00:10:56;100512.09;;;20.35;69.88
19676;BME280;39539;52.202;9.876;2022-07-25T00:13:21;100504.78;;;20.41;68.19
19676;BME280;39539;52.202;9.876;2022-07-25T00:15:47;100498.31;;;20.37;68.84
19676;BME280;39539;52.202;9.876;2022-07-25T00:18:12;100492.59;;;20.44;68.39
19676;BME280;39539;52.202;9.876;2022-07-25T00:20:37;100479.72;;;20.30;67.66
19676;BME280;39539;52.202;9.876;2022-07-25T00:23:03;100468.06;;;20.35;67.28
19676;BME280;39539;52.202;9.876;2022-07-25T00:25:28;100465.88;;;20.47;65.32
19676;BME280;39539;52.202;9.876;2022-07-25T00:27:53;100464.66;;;20.74;63.78
19676;BME280;39539;52.202;9.876;2022-07-25T00:30:19;100473.41;;;21.00;62.31
19676;BME280;39539;52.202;9.876;2022-07-25T00:32:44;100468.09;;;21.24;60.43
19676;BME280;39539;52.202;9.876;2022-07-25T00:35:10;100451.22;;;21.37;60.27
19676;BME280;39539;52.202;9.876;2022-07-25T00:37:35;100448.00;;;21.64;59.20
19676;BME280;39539;52.202;9.876;2022-07-25T00:40:02;100435.13;;;21.80;57.83
19676;BME280;39539;52.202;9.876;2022-07-25T00:42:28;100420.88;;;21.93;57.30
19676;BME280;39539;52.202;9.876;2022-07-25T00:44:53;100423.06;;;22.15;56.69
19676;BME280;39539;52.202;9.876;2022-07-25T00:47:18;100411.34;;;22.25;56.11
19676;BME280;39539;52.202;9.876;2022-07-25T00:49:44;100401.81;;;22.28;55.81
19676;BME280;39539;52.202;9.876;2022-07-25T00:52:09;100393.94;;;22.31;55.11
19676;BME280;39539;52.202;9.876;2022-07-25T00:54:35;100398.16;;;22.37;55.47
19676;BME280;39539;52.202;9.876;2022-07-25T00:57:00;100392.38;;;22.44;54.91
19676;BME280;39539;52.202;9.876;2022-07-25T00:59:25;100369.25;;;22.33;54.70
19676;BME280;39539;52.202;9.876;2022-07-25T01:01:51;100357.59;;;22.32;54.62
19676;BME280;39539;52.202;9.876;2022-07-25T01:04:16;100343.28;;;22.32;54.97
19676;BME280;39539;52.202;9.876;2022-07-25T01:06:42;100355.25;;;22.45;54.60
19676;BME280;39539;52.202;9.876;2022-07-25T01:09:09;100349.94;;;22.39;54.81
19676;BME280;39539;52.202;9.876;2022-07-25T01:11:34;100360.13;;;22.48;54.63
19676;BME280;39539;52.202;9.876;2022-07-25T01:13:59;100345.31;;;22.40;54.68
19676;BME280;39539;52.202;9.876;2022-07-25T01:16:25;100359.00;;;22.49;54.43
19676;BME280;39539;52.202;9.876;2022-07-25T01:18:50;100347.06;;;22.50;54.47
19676;BME280;39539;52.202;9.876;2022-07-25T01:21:16;100346.78;;;22.51;54.49
19676;BME280;39539;52.202;9.876;2022-07-25T01:23:41;100341.63;;;22.50;54.67
19676;BME280;39539;52.202;9.876;2022-07-25T01:26:07;100331.78;;;22.40;54.90
19676;BME280;39539;52.202;9.876;2022-07-25T01:28:32;100346.63;;;22.42;54.99
19676;BME280;39539;52.202;9.876;2022-07-25T01:30:58;100329.22;;;22.30;55.11
19676;BME280;39539;52.202;9.876;2022-07-25T01:33:23;100335.22;;;22.27;55.49
19676;BME280;39539;52.202;9.876;2022-07-25T01:35:49;100334.03;;;22.14;55.92
19676;BME280;39539;52.202;9.876;2022-07-25T01:38:15;100333.56;;;22.07;55.67
19676;BME280;39539;52.202;9.876;2022-07-25T01:40:42;100333.13;;;22.00;56.21
19676;BME280;39539;52.202;9.876;2022-07-25T01:43:08;100318.94;;;21.89;55.71
19676;BME280;39539;52.202;9.876;2022-07-25T01:45:34;100315.53;;;21.78;56.47
19676;BME280;39539;52.202;9.876;2022-07-25T01:48:00;100324.69;;;21.82;57.07
19676;BME280;39539;52.202;9.876;2022-07-25T01:50:25;100318.91;;;21.70;57.84
19676;BME280;39539;52.202;9.876;2022-07-25T01:52:51;100305.09;;;21.47;58.16
19676;BME280;39539;52.202;9.876;2022-07-25T01:55:16;100318.25;;;21.30;59.90
19676;BME280;39539;52.202;9.876;2022-07-25T01:57:42;100329.28;;;21.10;61.07
19676;BME280;39539;52.202;9.876;2022-07-25T02:00:10;100321.91;;;20.86;62.21
19676;BME280;39539;52.202;9.876;2022-07-25T02:02:37;100322.72;;;20.52;63.64
19676;BME280;39539;52.202;9.876;2022-07-25T02:05:03;100334.34;;;20.48;64.60
19676;BME280;39539;52.202;9.876;2022-07-25T02:07:28;100323.41;;;20.29;66.18
19676;BME280;39539;52.202;9.876;2022-07-25T02:09:54;100320.81;;;20.13;67.62
19676;BME280;39539;52.202;9.876;2022-07-25T02:12:19;100341.31;;;20.14;68.04
19676;BME280;39539;52.202;9.876;2022-07-25T02:14:44;100325.78;;;19.96;69.53
19676;BME280;39539;52.202;9.876;2022-07-25T02:17:10;100328.25;;;19.87;69.42
19676;BME280;39539;52.202;9.876;2022-07-25T02:19:37;100334.16;;;19.89;69.81
19676;BME280;39539;52.202;9.876;2022-07-25T02:22:02;100329.31;;;19.86;68.97
19676;BME280;39539;52.202;9.876;2022-07-25T02:24:28;100334.41;;;19.93;69.37
19676;BME280;39539;52.202;9.876;2022-07-25T02:26:53;100325.50;;;19.92;68.79
19676;BME280;39539;52.202;9.876;2022-07-25T02:29:19;100318.50;;;19.86;68.57
19676;BME280;39539;52.202;9.876;2022-07-25T02:31:44;100331.41;;;20.00;67.81
19676;BME280;39539;52.202;9.876;2022-07-25T02:34:09;100324.16;;;19.90;68.32
19676;BME280;39539;52.202;9.876;2022-07-25T02:36:35;100320.41;;;19.91;67.71
19676;BME280;39539;52.202;9.876;2022-07-25T02:39:00;100312.84;;;19.93;68.19
19676;BME280;39539;52.202;9.876;2022-07-25T02:41:25;100320.09;;;19.92;68.35
19676;BME280;39539;52.202;9.876;2022-07-25T02:43:51;100317.94;;;19.94;67.77
19676;BME280;39539;52.202;9.876;2022-07-25T02:46:17;100320.94;;;19.93;69.35
19676;BME280;39539;52.202;9.876;2022-07-25T02:48:43;100336.81;;;19.94;70.30
19676;BME280;39539;52.202;9.876;2022-07-25T02:51:08;100338.19;;;19.87;68.44
19676;BME280;39539;52.202;9.876;2022-07-25T02:53:33;100335.81;;;19.80;70.61
19676;BME280;39539;52.202;9.876;2022-07-25T02:55:59;100333.69;;;19.72;70.86
19676;BME280;39539;52.202;9.876;2022-07-25T02:58:24;100329.63;;;19.64;71.04
19676;BME280;39539;52.202;9.876;2022-07-25T03:00:49;100322.41;;;19.55;71.34
19676;BME280;39539;52.202;9.876;2022-07-25T03:03:15;100333.97;;;19.55;72.04
19676;BME280;39539;52.202;9.876;2022-07-25T03:05:40;100322.72;;;19.43;72.08
19676;BME280;39539;52.202;9.876;2022-07-25T03:08:06;100327.56;;;19.41;72.81
19676;BME280;39539;52.202;9.876;2022-07-25T03:10:31;100332.97;;;19.36;73.10
19676;BME280;39539;52.202;9.876;2022-07-25T03:12:58;100306.06;;;19.20;73.34
19676;BME280;39539;52.202;9.876;2022-07-25T03:15:23;100334.84;;;19.30;73.58
19676;BME280;39539;52.202;9.876;2022-07-25T03:17:49;100319.53;;;19.20;73.62
19676;BME280;39539;52.202;9.876;2022-07-25T03:20:14;100335.16;;;19.23;74.01
19676;BME280;39539;52.202;9.876;2022-07-25T03:22:40;100322.78;;;19.12;73.49
19676;BME280;39539;52.202;9.876;2022-07-25T03:25:06;100343.25;;;19.23;73.05
19676;BME280;39539;52.202;9.876;2022-07-25T03:27:31;100333.00;;;19.15;72.67
19676;BME280;39539;52.202;9.876;2022-07-25T03:29:56;100331.91;;;19.21;73.00
19676;BME280;39539;52.202;9.876;2022-07-25T03:32:22;100335.69;;;19.15;72.70
19676;BME280;39539;52.202;9.876;2022-07-25T03:34:48;100330.06;;;19.17;72.05
19676;BME280;39539;52.202;9.876;2022-07-25T03:37:13;100318.75;;;19.04;72.87
19676;BME280;39539;52.202;9.876;2022-07-25T03:39:39;100336.78;;;19.09;74.34
19676;BME280;39539;52.202;9.876;2022-07-25T03:42:04;100336.53;;;19.00;75.62
19676;BME280;39539;52.202;9.876;2022-07-25T03:44:29;100338.69;;;18.98;74.66
19676;BME280;39539;52.202;9.876;2022-07-25T03:46:55;100329.53;;;18.84;75.22
19676;BME280;39539;52.202;9.876;2022-07-25T03:49:20;100341.66;;;18.97;73.62
19676;BME280;39539;52.202;9.876;2022-07-25T03:51:46;100343.28;;;18.98;74.60
19676;BME280;39539;52.202;9.876;2022-07-25T03:54:11;100328.16;;;19.02;73.10
19676;BME280;39539;52.202;9.876;2022-07-25T03:56:42;100330.31;;;19.10;73.89
19676;BME280;39539;52.202;9.876;2022-07-25T03:59:10;100329.22;;;19.21;72.03
19676;BME280;39539;52.202;9.876;2022-07-25T04:01:36;100321.13;;;19.26;70.89
19676;BME280;39539;52.202;9.876;2022-07-25T04:04:02;100322.97;;;19.41;71.80
19676;BME280;39539;52.202;9.876;2022-07-25T04:06:28;100315.44;;;19.38;72.49
19676;BME280;39539;52.202;9.876;2022-07-25T04:08:54;100329.44;;;19.50;73.96
19676;BME280;39539;52.202;9.876;2022-07-25T04:11:20;100319.72;;;19.44;72.98
19676;BME280;39539;52.202;9.876;2022-07-25T04:13:46;100325.09;;;19.55;73.35
19676;BME280;39539;52.202;9.876;2022-07-25T04:16:12;100321.34;;;19.45;73.81
19676;BME280;39539;52.202;9.876;2022-07-25T04:18:37;100306.53;;;19.43;73.42
19676;BME280;39539;52.202;9.876;2022-07-25T04:21:03;100313.53;;;19.49;74.35
19676;BME280;39539;52.202;9.876;2022-07-25T04:23:29;100307.03;;;19.50;73.61
19676;BME280;39539;52.202;9.876;2022-07-25T04:25:55;100322.66;;;19.68;72.19
19676;BME280;39539;52.202;9.876;2022-07-25T04:28:21;100306.44;;;19.73;72.14
19676;BME280;39539;52.202;9.876;2022-07-25T04:30:46;100314.47;;;19.89;72.53
19676;BME280;39539;52.202;9.876;2022-07-25T04:33:12;100310.13;;;19.93;72.12
19676;BME280;39539;52.202;9.876;2022-07-25T04:35:38;100303.34;;;19.95;72.52
19676;BME280;39539;52.202;9.876;2022-07-25T04:38:03;100295.09;;;19.82;73.84
19676;BME280;39539;52.202;9.876;2022-07-25T04:40:29;100290.19;;;19.89;74.20
19676;BME280;39539;52.202;9.876;2022-07-25T04:42:54;100303.31;;;20.06;72.60
19676;BME280;39539;52.202;9.876;2022-07-25T04:45:20;100286.34;;;20.00;73.33
19676;BME280;39539;52.202;9.876;2022-07-25T04:47:45;100295.66;;;20.18;73.18
19676;BME280;39539;52.202;9.876;2022-07-25T04:50:11;100296.81;;;20.46;74.27
19676;BME280;39539;52.202;9.876;2022-07-25T04:52:37;100276.28;;;20.55;72.61
19676;BME280;39539;52.202;9.876;2022-07-25T04:55:02;100284.81;;;20.68;73.02
19676;BME280;39539;52.202;9.876;2022-07-25T04:57:28;100283.09;;;20.77;73.13
19676;BME280;39539;52.202;9.876;2022-07-25T04:59:54;100278.19;;;20.84;74.26
19676;BME280;39539;52.202;9.876;2022-07-25T05:02:20;100274.09;;;20.87;71.59
19676;BME280;39539;52.202;9.876;2022-07-25T05:04:46;100262.84;;;21.03;72.29
19676;BME280;39539;52.202;9.876;2022-07-25T05:07:11;100263.22;;;21.21;69.52
19676;BME280;39539;52.202;9.876;2022-07-25T05:09:38;100251.75;;;21.53;68.46
19676;BME280;39539;52.202;9.876;2022-07-25T05:12:04;100256.59;;;21.75;66.41
19676;BME280;39539;52.202;9.876;2022-07-25T05:14:29;100240.81;;;21.82;64.75
19676;BME280;39539;52.202;9.876;2022-07-25T05:16:54;100241.09;;;21.81;65.09
19676;BME280;39539;52.202;9.876;2022-07-25T05:19:20;100232.03;;;21.90;66.15
19676;BME280;39539;52.202;9.876;2022-07-25T05:21:45;100228.13;;;21.96;65.75
19676;BME280;39539;52.202;9.876;2022-07-25T05:24:10;100215.72;;;21.95;66.96
19676;BME280;39539;52.202;9.876;2022-07-25T05:26:36;100223.03;;;22.14;65.01
19676;BME280;39539;52.202;9.876;2022-07-25T05:29:01;100222.59;;;22.26;64.92
19676;BME280;39539;52.202;9.876;2022-07-25T05:31:27;100216.63;;;22.42;66.52
19676;BME280;39539;52.202;9.876;2022-07-25T05:33:52;100214.84;;;22.52;67.24
19676;BME280;39539;52.202;9.876;2022-07-25T05:36:17;100202.28;;;22.56;66.96
19676;BME280;39539;52.202;9.876;2022-07-25T05:38:43;100201.44;;;22.74;67.14
19676;BME280;39539;52.202;9.876;2022-07-25T05:41:08;100199.81;;;22.87;67.09
19676;BME280;39539;52.202;9.876;2022-07-25T05:43:33;100200.06;;;23.04;65.47
19676;BME280;39539;52.202;9.876;2022-07-25T05:46:03;100186.19;;;23.20;62.50
19676;BME280;39539;52.202;9.876;2022-07-25T05:48:29;100182.44;;;23.43;61.50
19676;BME280;39539;52.202;9.876;2022-07-25T05:50:55;100161.97;;;23.73;57.41
19676;BME280;39539;52.202;9.876;2022-07-25T05:53:20;100152.97;;;24.09;55.81
19676;BME280;39539;52.202;9.876;2022-07-25T05:55:46;100150.47;;;24.44;54.58
19676;BME280;39539;52.202;9.876;2022-07-25T05:58:11;100140.28;;;24.98;52.57
19676;BME280;39539;52.202;9.876;2022-07-25T06:00:37;100119.53;;;25.72;50.83
19676;BME280;39539;52.202;9.876;2022-07-25T06:03:03;100131.34;;;26.67;49.83
19676;BME280;39539;52.202;9.876;2022-07-25T06:05:29;100121.94;;;27.57;47.53
19676;BME280;39539;52.202;9.876;2022-07-25T06:07:54;100110.84;;;28.65;45.31
19676;BME280;39539;52.202;9.876;2022-07-25T06:10:20;100096.81;;;29.03;44.33
19676;BME280;39539;52.202;9.876;2022-07-25T06:12:45;100098.03;;;29.46;43.47
19676;BME280;39539;52.202;9.876;2022-07-25T06:15:10;100111.06;;;30.53;41.89
19676;BME280;39539;52.202;9.876;2022-07-25T06:17:36;100101.94;;;32.17;39.22
19676;BME280;39539;52.202;9.876;2022-07-25T06:20:02;100110.44;;;35.19;36.27
19676;BME280;39539;52.202;9.876;2022-07-25T06:22:29;100113.22;;;37.56;32.87
19676;BME280;39539;52.202;9.876;2022-07-25T06:24:54;100118.34;;;39.68;30.07
19676;BME280;39539;52.202;9.876;2022-07-25T06:27:19;100115.84;;;40.75;28.73
19676;BME280;39539;52.202;9.876;2022-07-25T06:29:45;100109.63;;;42.78;26.69
19676;BME280;39539;52.202;9.876;2022-07-25T06:32:10;100119.34;;;43.57;25.60
19676;BME280;39539;52.202;9.876;2022-07-25T06:34:35;100104.28;;;44.50;24.62
19676;BME280;39539;52.202;9.876;2022-07-25T06:37:01;100104.53;;;44.99;24.68
19676;BME280;39539;52.202;9.876;2022-07-25T06:39:26;100098.56;;;45.91;24.62
19676;BME280;39539;52.202;9.876;2022-07-25T06:41:52;100077.53;;;46.88;23.23
19676;BME280;39539;52.202;9.876;2022-07-25T06:44:18;100077.53;;;47.82;22.64
19676;BME280;39539;52.202;9.876;2022-07-25T06:46:43;100082.97;;;48.48;22.02
19676;BME280;39539;52.202;9.876;2022-07-25T06:49:09;100069.31;;;48.47;21.93
19676;BME280;39539;52.202;9.876;2022-07-25T06:51:34;100053.47;;;48.49;21.65
19676;BME280;39539;52.202;9.876;2022-07-25T06:54:01;100065.41;;;49.48;21.35
19676;BME280;39539;52.202;9.876;2022-07-25T06:56:26;100063.34;;;49.63;21.46
19676;BME280;39539;52.202;9.876;2022-07-25T06:58:56;100054.34;;;50.00;21.05
19676;BME280;39539;52.202;9.876;2022-07-25T07:01:21;100053.94;;;49.93;21.08
19676;BME280;39539;52.202;9.876;2022-07-25T07:03:47;100049.44;;;49.45;21.36
19676;BME280;39539;52.202;9.876;2022-07-25T07:06:12;100054.19;;;50.09;21.23
19676;BME280;39539;52.202;9.876;2022-07-25T07:08:38;100046.03;;;50.17;21.51
19676;BME280;39539;52.202;9.876;2022-07-25T07:11:04;100045.97;;;49.91;20.64
19676;BME280;39539;52.202;9.876;2022-07-25T07:13:30;100039.69;;;48.51;21.74
19676;BME280;39539;52.202;9.876;2022-07-25T07:15:55;100045.09;;;47.20;22.58
19676;BME280;39539;52.202;9.876;2022-07-25T07:18:21;100050.03;;;45.90;23.32
19676;BME280;39539;52.202;9.876;2022-07-25T07:20:47;100060.59;;;45.06;23.87
19676;BME280;39539;52.202;9.876;2022-07-25T07:23:13;100054.47;;;45.29;24.53
19676;BME280;39539;52.202;9.876;2022-07-25T07:25:38;100048.47;;;45.99;24.23
19676;BME280;39539;52.202;9.876;2022-07-25T07:28:04;100052.03;;;47.43;23.61
19676;BME280;39539;52.202;9.876;2022-07-25T07:30:30;100046.63;;;47.87;23.38
19676;BME280;39539;52.202;9.876;2022-07-25T07:32:56;100042.47;;;48.22;22.86
19676;BME280;39539;52.202;9.876;2022-07-25T07:35:21;100023.50;;;49.26;21.47
19676;BME280;39539;52.202;9.876;2022-07-25T07:37:47;100020.19;;;50.04;21.21
19676;BME280;39539;52.202;9.876;2022-07-25T07:40:14;100014.69;;;49.95;21.19
19676;BME280;39539;52.202;9.876;2022-07-25T07:42:42;100018.06;;;49.78;21.15
19676;BME280;39539;52.202;9.876;2022-07-25T07:45:16;100006.81;;;48.63;21.72
19676;BME280;39539;52.202;9.876;2022-07-25T07:47:42;100008.13;;;49.48;21.38
19676;BME280;39539;52.202;9.876;2022-07-25T07:50:09;100013.69;;;49.98;21.72
19676;BME280;39539;52.202;9.876;2022-07-25T07:52:34;100003.13;;;49.22;22.21
19676;BME280;39539;52.202;9.876;2022-07-25T07:55:01;99995.53;;;47.46;22.83
19676;BME280;39539;52.202;9.876;2022-07-25T07:57:45;100007.47;;;48.43;22.63
19676;BME280;39539;52.202;9.876;2022-07-25T08:00:11;99990.50;;;47.17;22.92
19676;BME280;39539;52.202;9.876;2022-07-25T08:02:46;99990.06;;;47.43;23.31
19676;BME280;39539;52.202;9.876;2022-07-25T08:05:18;99987.41;;;46.45;23.97
19676;BME280;39539;52.202;9.876;2022-07-25T08:07:44;100001.28;;;44.41;25.20
19676;BME280;39539;52.202;9.876;2022-07-25T08:10:12;100004.75;;;44.98;24.61
19676;BME280;39539;52.202;9.876;2022-07-25T08:12:40;100001.31;;;44.72;25.21
19676;BME280;39539;52.202;9.876;2022-07-25T08:15:07;99997.94;;;45.09;25.10
19676;BME280;39539;52.202;9.876;2022-07-25T08:17:33;99990.56;;;46.10;24.83
19676;BME280;39539;52.202;9.876;2022-07-25T08:19:58;99995.41;;;46.28;24.60
19676;BME280;39539;52.202;9.876;2022-07-25T08:22:23;99972.72;;;45.86;24.52
19676;BME280;39539;52.202;9.876;2022-07-25T08:24:49;99975.50;;;44.55;25.24
19676;BME280;39539;52.202;9.876;2022-07-25T08:27:14;99986.66;;;44.46;25.60
19676;BME280;39539;52.202;9.876;2022-07-25T08:29:40;99994.69;;;44.79;25.71
19676;BME280;39539;52.202;9.876;2022-07-25T08:32:06;99987.69;;;44.62;25.76
19676;BME280;39539;52.202;9.876;2022-07-25T08:34:31;99989.44;;;46.26;24.91
19676;BME280;39539;52.202;9.876;2022-07-25T08:36:56;99967.72;;;45.72;24.49
19676;BME280;39539;52.202;9.876;2022-07-25T08:39:22;99973.97;;;46.40;24.09
19676;BME280;39539;52.202;9.876;2022-07-25T08:41:48;99958.22;;;46.06;24.24
19676;BME280;39539;52.202;9.876;2022-07-25T08:44:16;99967.75;;;45.22;24.73
19676;BME280;39539;52.202;9.876;2022-07-25T08:46:43;99968.94;;;44.49;25.86
19676;BME280;39539;52.202;9.876;2022-07-25T08:49:10;99972.72;;;46.23;25.25
19676;BME280;39539;52.202;9.876;2022-07-25T08:51:36;99971.25;;;47.16;24.13
19676;BME280;39539;52.202;9.876;2022-07-25T08:54:02;99962.41;;;48.49;23.10
19676;BME280;39539;52.202;9.876;2022-07-25T08:56:28;99962.59;;;49.05;22.94
19676;BME280;39539;52.202;9.876;2022-07-25T08:58:53;99941.88;;;48.93;21.95
19676;BME280;39539;52.202;9.876;2022-07-25T09:01:22;99958.75;;;49.22;22.63
19676;BME280;39539;52.202;9.876;2022-07-25T09:03:48;99938.19;;;48.72;22.79
19676;BME280;39539;52.202;9.876;2022-07-25T09:06:17;99950.16;;;49.17;22.32
19676;BME280;39539;52.202;9.876;2022-07-25T09:08:57;99937.50;;;49.68;22.15
19676;BME280;39539;52.202;9.876;2022-07-25T09:11:36;99932.56;;;50.67;21.35
19676;BME280;39539;52.202;9.876;2022-07-25T09:14:07;99932.41;;;50.76;20.55
19676;BME280;39539;52.202;9.876;2022-07-25T09:16:36;99929.75;;;50.67;21.47
19676;BME280;39539;52.202;9.876;2022-07-25T09:19:22;99921.41;;;51.38;20.87
19676;BME280;39539;52.202;9.876;2022-07-25T09:22:06;99915.38;;;51.79;20.68
19676;BME280;39539;52.202;9.876;2022-07-25T09:24:33;99915.50;;;49.57;21.42
19676;BME280;39539;52.202;9.876;2022-07-25T09:27:08;99926.78;;;47.92;21.94
19676;BME280;39539;52.202;9.876;2022-07-25T09:29:36;99932.72;;;47.70;23.12
19676;BME280;39539;52.202;9.876;2022-07-25T09:32:24;99928.41;;;47.84;23.04
19676;BME280;39539;52.202;9.876;2022-07-25T09:34:49;99937.16;;;46.01;25.00
19676;BME280;39539;52.202;9.876;2022-07-25T09:37:18;99932.91;;;46.24;24.38
19676;BME280;39539;52.202;9.876;2022-07-25T09:39:49;99930.56;;;46.13;25.10
19676;BME280;39539;52.202;9.876;2022-07-25T09:42:28;99936.03;;;46.26;25.00
19676;BME280;39539;52.202;9.876;2022-07-25T09:50:16;99926.06;;;43.35;26.83
19676;BME280;39539;52.202;9.876;2022-07-25T09:52:43;99915.00;;;43.06;26.83
19676;BME280;39539;52.202;9.876;2022-07-25T09:55:09;99925.72;;;44.69;26.36
19676;BME280;39539;52.202;9.876;2022-07-25T09:57:36;99916.22;;;45.84;25.66
19676;BME280;39539;52.202;9.876;2022-07-25T10:00:03;99903.72;;;46.12;24.96
19676;BME280;39539;52.202;9.876;2022-07-25T10:07:38;99907.16;;;44.93;25.68
19676;BME280;39539;52.202;9.876;2022-07-25T10:10:05;99905.63;;;45.69;25.75
19676;BME280;39539;52.202;9.876;2022-07-25T10:12:31;99896.25;;;46.61;24.80
19676;BME280;39539;52.202;9.876;2022-07-25T10:15:13;99898.09;;;46.12;25.08
19676;BME280;39539;52.202;9.876;2022-07-25T10:17:39;99889.00;;;44.23;26.45
19676;BME280;39539;52.202;9.876;2022-07-25T10:20:08;99908.75;;;43.62;26.81
19676;BME280;39539;52.202;9.876;2022-07-25T10:22:44;99892.16;;;42.69;27.52
19676;BME280;39539;52.202;9.876;2022-07-25T10:25:15;99895.50;;;42.64;28.27
19676;BME280;39539;52.202;9.876;2022-07-25T10:27:48;99887.13;;;42.22;28.01
19676;BME280;39539;52.202;9.876;2022-07-25T10:30:22;99883.75;;;42.14;29.25
19676;BME280;39539;52.202;9.876;2022-07-25T10:32:49;99883.97;;;42.62;28.35
19676;BME280;39539;52.202;9.876;2022-07-25T10:35:16;99878.13;;;42.44;27.77
19676;BME280;39539;52.202;9.876;2022-07-25T10:37:44;99871.66;;;42.34;28.36
19676;BME280;39539;52.202;9.876;2022-07-25T10:40:10;99855.34;;;43.09;27.82
19676;BME280;39539;52.202;9.876;2022-07-25T10:42:35;99863.34;;;42.30;27.76
19676;BME280;39539;52.202;9.876;2022-07-25T10:45:01;99861.03;;;41.70;29.35
19676;BME280;39539;52.202;9.876;2022-07-25T10:47:33;99870.25;;;39.69;29.93
19676;BME280;39539;52.202;9.876;2022-07-25T10:50:02;99867.34;;;39.77;30.65
19676;BME280;39539;52.202;9.876;2022-07-25T10:52:29;99861.66;;;39.60;31.90
19676;BME280;39539;52.202;9.876;2022-07-25T10:54:59;99866.63;;;39.49;31.47
19676;BME280;39539;52.202;9.876;2022-07-25T10:57:27;99860.84;;;38.85;31.50
19676;BME280;39539;52.202;9.876;2022-07-25T10:59:53;99863.78;;;38.48;31.68
19676;BME280;39539;52.202;9.876;2022-07-25T11:02:19;99857.94;;;38.96;31.97
19676;BME280;39539;52.202;9.876;2022-07-25T11:05:05;99850.63;;;39.06;30.65
19676;BME280;39539;52.202;9.876;2022-07-25T11:07:30;99860.06;;;39.12;31.20
19676;BME280;39539;52.202;9.876;2022-07-25T11:10:02;99838.56;;;39.16;31.81
19676;BME280;39539;52.202;9.876;2022-07-25T11:12:28;99847.56;;;38.43;31.26
19676;BME280;39539;52.202;9.876;2022-07-25T11:15:03;99835.09;;;38.24;31.13
19676;BME280;39539;52.202;9.876;2022-07-25T11:17:29;99844.41;;;38.40;31.76
19676;BME280;39539;52.202;9.876;2022-07-25T11:20:04;99831.56;;;38.54;31.68
19676;BME280;39539;52.202;9.876;2022-07-25T11:22:30;99822.47;;;38.19;32.39
19676;BME280;39539;52.202;9.876;2022-07-25T11:24:56;99835.88;;;38.24;31.44
19676;BME280;39539;52.202;9.876;2022-07-25T11:27:25;99818.34;;;37.14;32.50
19676;BME280;39539;52.202;9.876;2022-07-25T11:29:52;99811.63;;;37.15;33.04
19676;BME280;39539;52.202;9.876;2022-07-25T11:32:18;99814.66;;;37.27;33.41
19676;BME280;39539;52.202;9.876;2022-07-25T11:34:47;99820.81;;;37.04;33.67
19676;BME280;39539;52.202;9.876;2022-07-25T11:37:13;99818.63;;;36.78;34.12
19676;BME280;39539;52.202;9.876;2022-07-25T11:39:41;99820.91;;;36.13;34.52
19676;BME280;39539;52.202;9.876;2022-07-25T11:42:15;99826.28;;;36.52;34.45
19676;BME280;39539;52.202;9.876;2022-07-25T11:44:44;99813.63;;;36.48;34.63
19676;BME280;39539;52.202;9.876;2022-07-25T11:47:28;99817.47;;;36.68;35.30
19676;BME280;39539;52.202;9.876;2022-07-25T11:49:59;99828.47;;;36.82;34.90
19676;BME280;39539;52.202;9.876;2022-07-25T11:52:31;99815.78;;;36.85;35.42
19676;BME280;39539;52.202;9.876;2022-07-25T11:55:06;99818.66;;;37.26;35.08
19676;BME280;39539;52.202;9.876;2022-07-25T11:57:41;99811.69;;;37.07;34.22
19676;BME280;39539;52.202;9.876;2022-07-25T12:00:19;99811.00;;;36.89;34.96
19676;BME280;39539;52.202;9.876;2022-07-25T12:02:45;99811.38;;;36.91;35.08
19676;BME280;39539;52.202;9.876;2022-07-25T12:05:13;99816.00;;;37.08;34.53
19676;BME280;39539;52.202;9.876;2022-07-25T12:07:52;99804.94;;;36.46;35.11
19676;BME280;39539;52.202;9.876;2022-07-25T12:10:22;99814.09;;;36.98;34.94
19676;BME280;39539;52.202;9.876;2022-07-25T12:12:53;99798.22;;;37.10;33.84
19676;BME280;39539;52.202;9.876;2022-07-25T12:15:31;99812.81;;;37.59;34.18
19676;BME280;39539;52.202;9.876;2022-07-25T12:17:57;99795.19;;;37.76;34.08
19676;BME280;39539;52.202;9.876;2022-07-25T12:20:29;99797.13;;;37.79;33.94
19676;BME280;39539;52.202;9.876;2022-07-25T12:23:00;99802.28;;;37.81;33.31
19676;BME280;39539;52.202;9.876;2022-07-25T12:25:27;99794.78;;;37.78;33.85
19676;BME280;39539;52.202;9.876;2022-07-25T12:27:54;99791.97;;;37.43;33.24
19676;BME280;39539;52.202;9.876;2022-07-25T12:30:20;99779.53;;;37.17;33.48
19676;BME280;39539;52.202;9.876;2022-07-25T12:32:45;99789.50;;;37.07;33.86
19676;BME280;39539;52.202;9.876;2022-07-25T12:35:12;99800.66;;;36.97;34.41
19676;BME280;39539;52.202;9.876;2022-07-25T12:37:39;99803.44;;;37.45;34.79
19676;BME280;39539;52.202;9.876;2022-07-25T12:40:06;99805.88;;;37.78;33.62
19676;BME280;39539;52.202;9.876;2022-07-25T12:42:31;99786.34;;;37.88;34.18
19676;BME280;39539;52.202;9.876;2022-07-25T12:44:57;99790.28;;;37.87;33.47
19676;BME280;39539;52.202;9.876;2022-07-25T12:47:23;99792.66;;;37.55;33.10
19676;BME280;39539;52.202;9.876;2022-07-25T12:49:48;99782.34;;;37.10;34.10
19676;BME280;39539;52.202;9.876;2022-07-25T12:52:13;99790.09;;;36.81;34.78
19676;BME280;39539;52.202;9.876;2022-07-25T12:54:39;99790.78;;;36.26;34.11
19676;BME280;39539;52.202;9.876;2022-07-25T12:57:04;99786.22;;;35.80;35.05
19676;BME280;39539;52.202;9.876;2022-07-25T12:59:30;99795.00;;;35.10;35.37
19676;BME280;39539;52.202;9.876;2022-07-25T13:01:55;99804.03;;;34.71;36.49